Time;durP1;ratioP1;P1;durP2;ratioP2;P2;SDS_P1;SDS_P2;PMS_P1;PMS_P2;Temp;Humidity;BMP_temperature;BMP_pressure;BME280_temperature;BME280_humidity;BME280_pressure;Samples;Min_cycle;Max_cycle;Signal;HPM_P1;HPM_P2
2023/05/23 00:01:42;;;;;;;25.88;13.13;;;16.00;99.90;;;;;;6240411;23;20012;-67
2023/05/23 00:04:08;;;;;;;31.25;13.75;;;15.90;99.90;;;;;;6240091;22;20024;-67
2023/05/23 00:06:34;;;;;;;31.98;13.63;;;15.80;99.90;;;;;;6240268;22;20032;-66
2023/05/23 00:09:01;;;;;;;31.85;13.75;;;15.90;99.90;;;;;;6238453;23;20027;-67
2023/05/23 00:11:27;;;;;;;29.15;13.75;;;15.90;99.90;;;;;;6240548;22;20060;-65
2023/05/23 00:13:54;;;;;;;32.72;13.10;;;15.90;99.90;;;;;;6241101;22;20391;-67
2023/05/23 00:16:21;;;;;;;29.42;13.90;;;15.80;99.90;;;;;;6242083;22;20557;-66
2023/05/23 00:18:49;;;;;;;28.20;12.75;;;15.70;99.90;;;;;;6240305;23;20019;-67
2023/05/23 00:21:15;;;;;;;25.05;11.38;;;15.60;99.90;;;;;;6242054;22;20023;-67
2023/05/23 00:23:42;;;;;;;17.55;10.40;;;15.70;99.90;;;;;;6240213;23;20035;-67
2023/05/23 00:26:08;;;;;;;20.73;9.82;;;15.60;99.90;;;;;;6242200;22;20012;-67
2023/05/23 00:28:34;;;;;;;18.98;9.88;;;15.50;99.90;;;;;;6242390;22;20012;-67
2023/05/23 00:31:00;;;;;;;20.77;11.18;;;15.60;99.90;;;;;;6241989;22;20099;-66
2023/05/23 00:33:25;;;;;;;16.88;9.32;;;15.60;99.90;;;;;;6242246;23;20016;-67
2023/05/23 00:35:51;;;;;;;18.77;9.10;;;15.50;99.90;;;;;;6242247;22;20017;-67
2023/05/23 00:38:18;;;;;;;15.43;9.52;;;15.60;99.90;;;;;;6242369;22;20012;-67
2023/05/23 00:40:44;;;;;;;15.90;8.80;;;15.50;99.90;;;;;;6241230;22;20019;-67
2023/05/23 00:43:09;;;;;;;14.70;8.77;;;15.50;99.90;;;;;;6240204;23;20051;-67
2023/05/23 00:45:35;;;;;;;17.58;9.13;;;15.50;99.90;;;;;;6241906;22;20024;-67
2023/05/23 00:48:02;;;;;;;15.05;9.13;;;15.40;99.90;;;;;;6241668;22;20031;-67
2023/05/23 00:50:29;;;;;;;14.10;8.40;;;15.50;99.90;;;;;;6239911;23;20341;-67
2023/05/23 00:52:56;;;;;;;12.43;7.63;;;15.50;99.90;;;;;;6242177;22;20012;-67
2023/05/23 00:55:24;;;;;;;12.93;7.55;;;15.50;99.90;;;;;;6242078;22;20481;-67
2023/05/23 00:57:53;;;;;;;14.15;7.93;;;15.50;99.90;;;;;;6240067;23;20023;-67
2023/05/23 01:00:19;;;;;;;15.57;8.07;;;15.50;99.90;;;;;;6239603;23;20023;-66
2023/05/23 01:02:49;;;;;;;13.25;7.85;;;15.50;99.90;;;;;;6243012;22;20056;-67
2023/05/23 01:05:17;;;;;;;10.98;7.53;;;15.40;99.90;;;;;;6240025;23;20595;-67
2023/05/23 01:07:43;;;;;;;11.90;7.78;;;15.40;99.90;;;;;;6241584;22;20023;-67
2023/05/23 01:10:10;;;;;;;14.80;8.38;;;15.40;99.90;;;;;;6241912;22;20016;-66
2023/05/23 01:12:56;;;;;;;15.88;9.05;;;15.40;99.90;;;;;;6241688;22;20138;-67
2023/05/23 01:15:34;;;;;;;14.57;8.68;;;15.40;99.90;;;;;;6241595;22;20317;-67
2023/05/23 01:18:13;;;;;;;21.75;9.77;;;15.30;99.90;;;;;;6241456;22;20048;-67
2023/05/23 01:21:05;;;;;;;13.00;8.93;;;15.30;99.90;;;;;;6239744;23;20050;-67
2023/05/23 01:23:48;;;;;;;16.25;8.45;;;15.40;99.90;;;;;;6241911;22;20023;-67
2023/05/23 01:26:35;;;;;;;10.68;7.97;;;15.40;99.90;;;;;;6241762;22;20066;-67
2023/05/23 01:29:12;;;;;;;13.70;9.23;;;15.30;99.90;;;;;;6241558;22;20313;-67
2023/05/23 01:31:47;;;;;;;12.82;8.38;;;15.40;99.90;;;;;;6241590;22;20023;-67
2023/05/23 01:34:13;;;;;;;13.02;7.78;;;15.20;99.90;;;;;;6241075;22;20054;-67
2023/05/23 01:36:42;;;;;;;16.70;8.38;;;15.30;99.90;;;;;;6239566;23;20027;-67
2023/05/23 01:39:07;;;;;;;16.63;8.52;;;15.20;99.90;;;;;;6239480;23;20023;-67
2023/05/23 01:41:33;;;;;;;12.25;8.38;;;15.30;99.90;;;;;;6214275;23;20016;-67
2023/05/23 01:43:59;;;;;;;15.32;8.88;;;15.30;99.90;;;;;;6241085;22;20106;-67
2023/05/23 01:46:27;;;;;;;12.80;8.07;;;15.30;99.90;;;;;;6240284;23;20078;-67
2023/05/23 01:48:55;;;;;;;17.58;9.82;;;15.20;99.90;;;;;;6241140;22;20008;-67
2023/05/23 01:51:22;;;;;;;21.50;11.18;;;15.10;99.90;;;;;;6241150;22;20178;-67
2023/05/23 01:53:49;;;;;;;16.45;11.02;;;15.00;99.90;;;;;;6241284;22;20012;-67
2023/05/23 01:56:15;;;;;;;17.10;10.55;;;15.00;99.90;;;;;;6241570;22;20361;-67
2023/05/23 01:58:41;;;;;;;15.95;9.88;;;15.00;99.90;;;;;;6240964;22;20088;-67
2023/05/23 02:01:08;;;;;;;14.60;9.63;;;15.10;99.90;;;;;;6241266;22;20020;-67
2023/05/23 02:03:37;;;;;;;20.15;10.52;;;15.00;99.90;;;;;;6239240;23;20051;-67
2023/05/23 02:06:02;;;;;;;15.05;9.90;;;14.90;99.90;;;;;;6239876;23;20158;-67
2023/05/23 02:08:28;;;;;;;18.52;11.55;;;14.90;99.90;;;;;;6241564;22;20056;-67
2023/05/23 02:10:54;;;;;;;17.55;9.95;;;14.90;99.90;;;;;;6241426;23;20016;-67
2023/05/23 02:13:20;;;;;;;13.30;8.45;;;14.80;99.90;;;;;;6240867;22;20087;-67
2023/05/23 02:15:45;;;;;;;17.38;7.78;;;14.80;99.90;;;;;;6239312;23;20020;-67
2023/05/23 02:18:12;;;;;;;13.50;8.73;;;14.70;99.90;;;;;;6239222;23;20596;-67
2023/05/23 02:20:37;;;;;;;15.65;8.40;;;14.70;99.90;;;;;;6240861;22;20495;-67
2023/05/23 02:23:03;;;;;;;14.77;7.85;;;14.70;99.90;;;;;;6240790;22;20020;-67
2023/05/23 02:25:29;;;;;;;17.30;8.07;;;14.70;99.90;;;;;;6240591;22;20016;-67
2023/05/23 02:27:54;;;;;;;10.80;7.15;;;14.70;99.90;;;;;;6238892;23;20069;-67
2023/05/23 02:30:20;;;;;;;10.70;7.18;;;14.70;99.90;;;;;;6238906;23;20027;-67
2023/05/23 02:32:46;;;;;;;15.52;8.20;;;14.70;99.90;;;;;;6239120;23;20016;-67
2023/05/23 02:35:12;;;;;;;15.27;7.15;;;14.70;99.90;;;;;;6239040;23;20039;-67
2023/05/23 02:37:38;;;;;;;13.25;7.80;;;14.70;99.90;;;;;;6240691;22;20023;-67
2023/05/23 02:40:06;;;;;;;14.75;7.63;;;14.60;99.90;;;;;;6238982;23;20777;-67
2023/05/23 02:42:32;;;;;;;15.48;7.90;;;14.50;99.90;;;;;;6240855;22;20012;-67
2023/05/23 02:44:58;;;;;;;15.30;7.80;;;14.60;99.90;;;;;;6238951;23;20020;-67
2023/05/23 02:47:24;;;;;;;15.15;8.18;;;14.50;99.90;;;;;;6241097;22;20090;-67
2023/05/23 02:49:50;;;;;;;16.40;7.57;;;14.50;99.90;;;;;;6240973;22;20091;-67
2023/05/23 02:52:16;;;;;;;17.75;7.55;;;14.40;99.90;;;;;;6213625;23;20020;-67
2023/05/23 02:54:42;;;;;;;16.40;7.75;;;14.50;99.90;;;;;;6238852;23;20134;-67
2023/05/23 02:57:08;;;;;;;18.55;7.88;;;14.40;99.90;;;;;;6240383;22;20488;-67
2023/05/23 02:59:33;;;;;;;13.60;7.00;;;14.40;99.90;;;;;;6240450;22;20023;-67
2023/05/23 03:01:59;;;;;;;17.92;7.78;;;14.40;99.90;;;;;;6240925;22;20008;-67
2023/05/23 03:04:26;;;;;;;12.52;7.28;;;14.40;99.90;;;;;;6240471;22;20016;-67
2023/05/23 03:06:53;;;;;;;18.70;7.38;;;14.30;99.90;;;;;;6213588;23;20340;-67
2023/05/23 03:09:19;;;;;;;14.35;6.60;;;14.20;99.90;;;;;;6240605;22;20078;-67
2023/05/23 03:11:45;;;;;;;13.45;6.15;;;14.30;99.90;;;;;;6240538;22;20103;-67
2023/05/23 03:14:10;;;;;;;14.02;6.53;;;14.30;99.90;;;;;;6238653;23;20399;-67
2023/05/23 03:16:36;;;;;;;15.25;6.65;;;14.30;99.90;;;;;;6238977;23;20102;-67
2023/05/23 03:19:03;;;;;;;11.57;5.97;;;14.30;99.90;;;;;;6238873;23;20027;-67
2023/05/23 03:21:31;;;;;;;11.00;5.80;;;14.30;99.90;;;;;;6240894;22;20016;-67
2023/05/23 03:23:56;;;;;;;12.02;6.05;;;14.30;99.90;;;;;;6238987;23;20024;-67
2023/05/23 03:26:22;;;;;;;12.98;5.50;;;14.30;99.90;;;;;;6240678;22;20090;-67
2023/05/23 03:28:49;;;;;;;15.90;5.25;;;14.20;99.90;;;;;;6240760;22;20051;-67
2023/05/23 03:31:16;;;;;;;12.75;6.22;;;14.10;99.90;;;;;;6238911;23;20489;-67
2023/05/23 03:33:41;;;;;;;13.15;6.03;;;14.10;99.90;;;;;;6239009;23;20020;-67
2023/05/23 03:36:07;;;;;;;14.48;6.35;;;14.10;99.90;;;;;;6240504;22;20016;-66
2023/05/23 03:38:33;;;;;;;16.80;6.13;;;14.10;99.90;;;;;;6240908;22;20008;-67
2023/05/23 03:40:58;;;;;;;12.32;6.03;;;14.10;99.90;;;;;;6240228;22;20683;-66
2023/05/23 03:43:24;;;;;;;14.40;6.68;;;14.10;99.90;;;;;;6238586;23;20020;-67
2023/05/23 03:45:50;;;;;;;16.55;6.93;;;13.90;99.90;;;;;;6240821;22;20012;-66
2023/05/23 03:48:16;;;;;;;11.35;6.03;;;13.90;99.90;;;;;;6238807;23;20383;-67
2023/05/23 03:50:42;;;;;;;15.93;5.80;;;14.00;99.90;;;;;;6242686;22;20004;-67
2023/05/23 03:53:07;;;;;;;17.73;6.05;;;13.90;99.90;;;;;;6243160;22;20091;-67
2023/05/23 03:55:33;;;;;;;17.08;5.72;;;13.90;99.90;;;;;;6215505;23;20105;-67
2023/05/23 03:57:59;;;;;;;12.95;5.78;;;13.90;99.90;;;;;;6242619;22;20016;-67
2023/05/23 04:00:25;;;;;;;22.20;6.88;;;13.90;99.90;;;;;;6242277;22;20035;-66
2023/05/23 04:02:50;;;;;;;17.15;6.57;;;13.80;99.90;;;;;;6242355;22;20091;-67
2023/05/23 04:05:16;;;;;;;18.10;5.75;;;13.80;99.90;;;;;;6241956;22;20089;-67
2023/05/23 04:07:43;;;;;;;19.20;5.93;;;13.80;99.90;;;;;;6242557;22;20023;-67
2023/05/23 04:10:09;;;;;;;12.27;5.43;;;13.80;99.90;;;;;;6242033;22;20016;-67
2023/05/23 04:12:35;;;;;;;14.02;5.97;;;13.70;99.90;;;;;;6242356;22;20024;-67
2023/05/23 04:15:02;;;;;;;13.95;5.50;;;13.80;99.90;;;;;;6242924;22;20047;-67
2023/05/23 04:17:30;;;;;;;21.27;5.95;;;13.80;99.90;;;;;;6242472;22;20008;-67
2023/05/23 04:19:56;;;;;;;13.77;5.10;;;13.60;99.90;;;;;;6242095;22;20028;-67
2023/05/23 04:22:22;;;;;;;15.95;5.32;;;13.60;99.90;;;;;;6242442;22;20087;-67
2023/05/23 04:24:48;;;;;;;13.88;6.50;;;13.60;99.90;;;;;;6240199;23;20093;-66
2023/05/23 04:27:13;;;;;;;14.05;4.90;;;13.50;99.90;;;;;;6242274;22;20514;-67
2023/05/23 04:29:39;;;;;;;14.30;5.05;;;13.60;99.90;;;;;;6242036;22;20016;-67
2023/05/23 04:32:05;;;;;;;14.85;4.95;;;13.40;99.90;;;;;;6241764;22;20011;-67
2023/05/23 04:34:32;;;;;;;13.43;5.07;;;13.60;99.90;;;;;;6240085;23;20518;-66
2023/05/23 04:37:01;;;;;;;16.42;5.25;;;13.50;99.90;;;;;;6242230;22;20008;-66
2023/05/23 04:39:27;;;;;;;13.32;5.28;;;13.50;99.90;;;;;;6241823;22;20020;-66
2023/05/23 04:41:53;;;;;;;15.82;5.07;;;13.50;99.90;;;;;;6241737;22;20023;-67
2023/05/23 04:44:19;;;;;;;13.98;5.00;;;13.50;99.90;;;;;;6241546;22;20442;-66
2023/05/23 04:46:45;;;;;;;9.88;5.20;;;13.50;99.90;;;;;;6240110;23;20027;-67
2023/05/23 04:49:11;;;;;;;13.15;5.03;;;13.40;99.90;;;;;;6240104;23;20095;-66
2023/05/23 04:51:37;;;;;;;12.02;4.75;;;13.50;99.90;;;;;;6241832;22;20020;-66
2023/05/23 04:54:03;;;;;;;9.68;4.78;;;13.50;99.90;;;;;;6241962;22;20020;-66
2023/05/23 04:56:30;;;;;;;8.15;3.88;;;13.40;99.90;;;;;;6241955;22;20087;-66
2023/05/23 04:58:56;;;;;;;10.00;4.05;;;13.40;99.90;;;;;;6239999;23;20028;-66
2023/05/23 05:01:23;;;;;;;7.88;4.10;;;13.40;99.90;;;;;;6241516;22;20312;-66
2023/05/23 05:03:49;;;;;;;11.65;3.92;;;13.30;99.90;;;;;;6239735;23;20046;-67
2023/05/23 05:06:16;;;;;;;8.50;3.92;;;13.30;99.90;;;;;;6241709;22;20026;-65
2023/05/23 05:08:42;;;;;;;7.65;3.60;;;13.30;99.90;;;;;;6239665;23;20016;-66
2023/05/23 05:11:09;;;;;;;8.48;4.13;;;13.20;99.90;;;;;;6241702;22;20016;-66
2023/05/23 05:13:35;;;;;;;12.30;4.63;;;13.20;99.90;;;;;;6240229;23;20023;-66
2023/05/23 05:16:01;;;;;;;8.70;3.75;;;13.30;99.90;;;;;;6241728;22;20012;-65
2023/05/23 05:18:28;;;;;;;10.02;4.05;;;13.20;99.90;;;;;;6241712;22;20023;-66
2023/05/23 05:20:54;;;;;;;8.93;4.47;;;13.10;99.90;;;;;;6241383;22;20058;-66
2023/05/23 05:23:24;;;;;;;10.98;4.43;;;13.20;99.90;;;;;;6240667;23;20016;-66
2023/05/23 05:25:49;;;;;;;9.75;4.10;;;13.20;99.90;;;;;;6240322;23;20075;-66
2023/05/23 05:28:15;;;;;;;9.35;4.13;;;13.20;99.90;;;;;;6241105;23;20046;-67
2023/05/23 05:30:41;;;;;;;8.48;3.53;;;13.10;99.90;;;;;;6241573;22;20047;-66
2023/05/23 05:33:07;;;;;;;13.70;3.95;;;13.10;99.90;;;;;;6241606;22;20015;-66
2023/05/23 05:35:34;;;;;;;10.77;3.65;;;13.10;99.90;;;;;;6239202;23;20019;-66
2023/05/23 05:38:03;;;;;;;9.73;3.40;;;13.00;99.90;;;;;;6214009;23;20027;-66
2023/05/23 05:40:30;;;;;;;9.32;3.95;;;13.00;99.90;;;;;;6241159;22;20491;-67
2023/05/23 05:42:56;;;;;;;9.02;3.30;;;13.00;99.90;;;;;;6240976;22;20020;-66
2023/05/23 05:45:22;;;;;;;10.77;3.67;;;13.10;99.90;;;;;;6241388;22;20023;-66
2023/05/23 05:47:48;;;;;;;12.63;4.35;;;13.00;99.90;;;;;;6241085;22;20008;-67
2023/05/23 05:50:13;;;;;;;13.25;4.30;;;12.90;99.90;;;;;;6240973;22;20613;-66
2023/05/23 05:52:40;;;;;;;10.13;4.13;;;12.90;99.90;;;;;;6241224;22;20325;-67
2023/05/23 05:55:12;;;;;;;10.60;4.22;;;12.90;99.90;;;;;;6240956;22;20024;-67
2023/05/23 05:57:39;;;;;;;11.80;4.00;;;12.90;99.90;;;;;;6239226;23;20016;-66
2023/05/23 06:00:14;;;;;;;13.48;4.75;;;12.90;99.90;;;;;;6241210;22;20004;-66
2023/05/23 06:02:42;;;;;;;10.48;4.85;;;12.90;99.90;;;;;;6239885;22;20043;-66
2023/05/23 06:05:13;;;;;;;15.20;4.88;;;12.90;99.90;;;;;;6239582;22;20028;-71
2023/05/23 06:07:39;;;;;;;12.88;4.63;;;12.80;99.90;;;;;;6240423;22;20625;-66
2023/05/23 06:10:06;;;;;;;13.63;5.10;;;12.70;99.90;;;;;;6240642;22;20065;-66
2023/05/23 06:12:32;;;;;;;12.15;5.35;;;12.70;99.90;;;;;;6240413;22;20115;-66
2023/05/23 06:14:58;;;;;;;14.75;5.88;;;12.70;99.90;;;;;;6240777;22;20008;-66
2023/05/23 06:17:24;;;;;;;14.27;5.40;;;12.70;99.90;;;;;;6241187;22;20489;-66
2023/05/23 06:19:50;;;;;;;15.10;5.50;;;12.50;99.90;;;;;;6238761;23;20015;-73
2023/05/23 06:22:16;;;;;;;13.18;5.15;;;12.50;99.90;;;;;;6214079;23;20436;-67
2023/05/23 06:24:42;;;;;;;13.07;4.97;;;12.60;99.90;;;;;;6241023;22;20016;-66
2023/05/23 06:27:08;;;;;;;8.80;5.10;;;12.60;99.90;;;;;;6241290;22;20086;-66
2023/05/23 06:29:35;;;;;;;13.88;4.97;;;12.50;99.90;;;;;;6240931;22;20026;-66
2023/05/23 06:32:01;;;;;;;12.13;5.55;;;12.50;99.90;;;;;;6240517;22;20044;-66
2023/05/23 06:34:27;;;;;;;13.20;5.43;;;12.40;99.90;;;;;;6240961;22;20023;-66
2023/05/23 06:36:53;;;;;;;12.95;4.15;;;12.40;99.90;;;;;;6239252;23;20008;-66
2023/05/23 06:39:19;;;;;;;14.88;5.03;;;12.40;99.90;;;;;;6241209;22;20012;-66
2023/05/23 06:41:46;;;;;;;19.73;6.10;;;12.40;99.90;;;;;;6241393;22;20483;-66
2023/05/23 06:44:12;;;;;;;11.00;3.95;;;12.40;99.90;;;;;;6241357;22;20012;-66
2023/05/23 06:46:37;;;;;;;9.80;4.00;;;12.40;99.90;;;;;;6239142;23;20343;-66
2023/05/23 06:49:03;;;;;;;10.43;4.97;;;12.40;99.90;;;;;;6240998;22;20737;-66
2023/05/23 06:51:30;;;;;;;11.35;4.03;;;12.40;99.90;;;;;;6213805;23;20028;-66
2023/05/23 06:53:56;;;;;;;10.25;4.13;;;12.40;99.90;;;;;;6240877;22;20020;-66
2023/05/23 06:56:24;;;;;;;11.15;4.65;;;12.50;99.90;;;;;;6241014;22;20074;-66
2023/05/23 06:58:50;;;;;;;7.97;4.00;;;12.50;99.90;;;;;;6241071;22;20340;-66
2023/05/23 07:01:16;;;;;;;11.82;4.57;;;12.50;99.90;;;;;;6238890;23;20025;-65
2023/05/23 07:03:44;;;;;;;10.88;3.58;;;12.40;99.90;;;;;;6238796;23;20689;-66
2023/05/23 07:06:10;;;;;;;6.28;2.97;;;12.40;99.90;;;;;;6240751;22;20417;-67
2023/05/23 07:08:36;;;;;;;9.85;3.25;;;12.40;99.90;;;;;;6213834;23;20039;-67
2023/05/23 07:11:02;;;;;;;9.35;3.28;;;12.40;99.90;;;;;;6240434;22;20042;-67
2023/05/23 07:13:28;;;;;;;10.07;3.40;;;12.40;99.90;;;;;;6240390;22;20012;-68
2023/05/23 07:15:54;;;;;;;12.55;3.15;;;12.30;99.90;;;;;;6238946;23;20087;-67
2023/05/23 07:18:20;;;;;;;13.57;2.97;;;12.30;99.90;;;;;;6240729;22;20083;-69
2023/05/23 07:20:46;;;;;;;8.55;2.72;;;12.30;99.90;;;;;;6238844;23;20459;-69
2023/05/23 07:23:12;;;;;;;10.10;3.47;;;12.30;99.90;;;;;;6241343;22;20031;-69
2023/05/23 07:25:39;;;;;;;10.10;3.67;;;12.30;99.90;;;;;;6240404;23;20043;-68
2023/05/23 07:28:05;;;;;;;12.65;2.97;;;12.30;99.90;;;;;;6242012;22;20444;-68
2023/05/23 07:30:30;;;;;;;10.07;3.22;;;12.30;99.90;;;;;;6239777;23;20012;-68
2023/05/23 07:32:56;;;;;;;8.35;2.72;;;12.30;99.90;;;;;;6241581;22;20016;-68
2023/05/23 07:35:25;;;;;;;14.38;3.22;;;12.30;99.90;;;;;;6242294;22;20092;-69
2023/05/23 07:37:54;;;;;;;9.27;4.03;;;12.30;99.90;;;;;;6242567;22;20019;-69
2023/05/23 07:40:21;;;;;;;14.32;3.63;;;12.30;99.90;;;;;;6241432;23;20012;-69
2023/05/23 07:42:47;;;;;;;8.52;2.70;;;12.40;99.90;;;;;;6240925;23;20012;-68
2023/05/23 07:45:13;;;;;;;12.60;3.70;;;12.40;99.90;;;;;;6242360;22;20023;-68
2023/05/23 07:47:40;;;;;;;9.45;2.63;;;12.50;99.90;;;;;;6241466;22;20024;-68
2023/05/23 07:50:06;;;;;;;11.38;3.30;;;12.50;99.90;;;;;;6241556;22;20024;-68
2023/05/23 07:52:32;;;;;;;14.18;4.50;;;12.50;99.90;;;;;;6241562;22;20023;-69
2023/05/23 07:54:58;;;;;;;17.48;3.53;;;12.60;99.90;;;;;;6240943;23;20024;-68
2023/05/23 07:57:24;;;;;;;15.18;2.83;;;12.60;99.90;;;;;;6240553;23;20121;-68
2023/05/23 07:59:51;;;;;;;16.23;3.58;;;12.60;99.90;;;;;;6240394;23;20023;-68
2023/05/23 08:02:17;;;;;;;11.57;3.63;;;12.60;99.90;;;;;;6240468;23;20047;-68
2023/05/23 08:04:44;;;;;;;10.95;4.05;;;12.50;99.90;;;;;;6240771;23;20023;-68
2023/05/23 08:07:10;;;;;;;11.98;3.20;;;12.60;99.90;;;;;;6242720;22;20047;-68
2023/05/23 08:09:37;;;;;;;14.48;3.50;;;12.50;99.90;;;;;;6242668;22;20016;-67
2023/05/23 08:12:03;;;;;;;10.25;3.20;;;12.60;99.90;;;;;;6240864;22;20023;-67
2023/05/23 08:14:32;;;;;;;15.70;3.55;;;12.60;99.90;;;;;;6242173;22;20016;-67
2023/05/23 08:16:57;;;;;;;15.60;4.68;;;12.60;99.90;;;;;;6241884;22;20012;-68
2023/05/23 08:19:23;;;;;;;7.90;2.50;;;12.60;99.90;;;;;;6242433;22;20340;-67
2023/05/23 08:21:49;;;;;;;12.88;3.55;;;12.60;99.90;;;;;;6240452;23;20054;-67
2023/05/23 08:24:15;;;;;;;11.43;3.13;;;12.60;99.90;;;;;;6241766;22;20016;-67
2023/05/23 08:26:40;;;;;;;12.32;3.95;;;12.70;99.90;;;;;;6239992;23;20004;-67
2023/05/23 08:29:08;;;;;;;8.23;3.13;;;12.70;99.90;;;;;;6240235;23;20047;-67
2023/05/23 08:31:34;;;;;;;11.68;2.45;;;12.70;99.90;;;;;;6241960;22;20095;-67
2023/05/23 08:34:00;;;;;;;12.45;2.65;;;12.70;99.90;;;;;;6241576;22;20047;-67
2023/05/23 08:36:26;;;;;;;17.80;3.33;;;12.70;99.90;;;;;;6242053;22;20351;-67
2023/05/23 08:38:52;;;;;;;15.80;3.25;;;12.80;99.90;;;;;;6241658;22;20027;-67
2023/05/23 08:41:19;;;;;;;24.70;3.42;;;12.80;99.90;;;;;;6239659;23;20020;-67
2023/05/23 08:43:46;;;;;;;11.93;2.53;;;12.80;99.90;;;;;;6241536;22;20019;-67
2023/05/23 08:46:12;;;;;;;14.60;2.65;;;12.90;99.90;;;;;;6241748;22;20004;-67
2023/05/23 08:48:38;;;;;;;10.43;2.65;;;12.90;99.90;;;;;;6242012;22;20095;-67
2023/05/23 08:51:05;;;;;;;11.30;2.90;;;12.80;99.90;;;;;;6241384;22;20016;-68
2023/05/23 08:53:33;;;;;;;15.52;2.90;;;12.90;99.90;;;;;;6241729;22;20035;-68
2023/05/23 08:56:01;;;;;;;9.10;2.88;;;13.00;99.90;;;;;;6239887;23;20499;-68
2023/05/23 08:58:30;;;;;;;10.20;2.47;;;13.00;99.90;;;;;;6241024;22;20378;-67
2023/05/23 09:00:58;;;;;;;10.77;2.80;;;13.20;99.90;;;;;;6241678;22;20018;-67
2023/05/23 09:03:27;;;;;;;12.05;3.03;;;13.20;99.90;;;;;;6241688;22;20016;-67
2023/05/23 09:05:53;;;;;;;12.95;2.53;;;13.40;99.90;;;;;;6214420;23;20028;-67
2023/05/23 09:08:20;;;;;;;13.45;3.45;;;13.50;99.90;;;;;;6241922;22;20098;-67
2023/05/23 09:10:48;;;;;;;14.82;3.33;;;13.50;99.90;;;;;;6241989;22;20027;-67
2023/05/23 09:13:16;;;;;;;13.00;3.05;;;13.50;99.90;;;;;;6239586;23;20016;-67
2023/05/23 09:16:05;;;;;;;9.65;2.53;;;13.70;99.90;;;;;;6239874;23;20024;-67
2023/05/23 09:18:48;;;;;;;16.88;3.17;;;13.70;99.90;;;;;;6241837;22;20023;-67
2023/05/23 09:21:14;;;;;;;9.07;2.15;;;13.80;99.90;;;;;;6240017;23;20020;-67
2023/05/23 09:23:43;;;;;;;12.13;2.67;;;13.70;99.90;;;;;;6240006;23;20020;-67
2023/05/23 09:26:12;;;;;;;13.38;3.08;;;13.80;99.90;;;;;;6239778;23;20356;-67
2023/05/23 09:28:41;;;;;;;14.27;2.92;;;13.80;99.90;;;;;;6241504;22;20352;-67
2023/05/23 09:31:07;;;;;;;13.57;3.05;;;13.70;99.90;;;;;;6241629;22;20086;-67
2023/05/23 09:33:48;;;;;;;10.55;2.67;;;13.90;99.90;;;;;;6239529;23;20020;-66
2023/05/23 09:36:15;;;;;;;11.60;2.63;;;13.90;99.90;;;;;;6239853;23;20391;-67
2023/05/23 09:38:43;;;;;;;13.38;2.72;;;14.00;99.90;;;;;;6241730;22;20016;-67
2023/05/23 09:41:12;;;;;;;10.70;3.03;;;14.10;99.90;;;;;;6239782;23;20031;-67
2023/05/23 09:43:39;;;;;;;13.02;2.75;;;14.20;99.90;;;;;;6241393;22;20391;-67
2023/05/23 09:46:10;;;;;;;15.43;3.42;;;14.20;99.90;;;;;;6239705;23;20016;-67
2023/05/23 09:48:36;;;;;;;12.93;2.70;;;14.40;99.90;;;;;;6241186;22;20030;-67
2023/05/23 09:51:09;;;;;;;12.18;2.92;;;14.40;99.90;;;;;;6241214;22;20047;-66
2023/05/23 09:53:36;;;;;;;13.32;3.05;;;14.30;99.90;;;;;;6241843;22;20016;-67
2023/05/23 09:56:02;;;;;;;14.77;3.15;;;14.40;99.90;;;;;;6242450;22;20023;-67
2023/05/23 09:58:30;;;;;;;11.10;2.53;;;14.50;99.90;;;;;;6241307;22;20026;-67
2023/05/23 10:01:01;;;;;;;10.52;2.45;;;14.30;99.90;;;;;;6214199;23;20044;-67
2023/05/23 10:03:32;;;;;;;17.25;2.95;;;14.40;99.90;;;;;;6241513;22;20090;-67
2023/05/23 10:06:35;;;;;;;11.32;2.83;;;14.30;99.90;;;;;;6239178;23;20016;-67
2023/05/23 10:09:02;;;;;;;12.43;2.40;;;14.40;99.90;;;;;;6221660;22;20146;-67
2023/05/23 10:11:34;;;;;;;12.82;2.85;;;14.30;99.90;;;;;;6239568;23;20146;-67
2023/05/23 10:14:10;;;;;;;10.55;2.40;;;14.40;99.90;;;;;;6239444;23;20340;-67
2023/05/23 10:17:05;;;;;;;10.40;2.30;;;14.40;99.90;;;;;;6241279;22;20012;-67
2023/05/23 10:19:41;;;;;;;12.75;4.53;;;14.50;99.90;;;;;;6240941;22;20054;-67
2023/05/23 10:22:10;;;;;;;13.13;3.22;;;14.60;99.90;;;;;;6239575;23;20016;-67
2023/05/23 10:24:36;;;;;;;11.52;2.45;;;14.80;99.90;;;;;;6239127;23;20020;-67
2023/05/23 10:27:02;;;;;;;11.63;2.65;;;14.70;99.90;;;;;;6240787;22;20047;-67
2023/05/23 10:29:29;;;;;;;12.00;2.72;;;14.60;99.90;;;;;;6240983;22;20020;-67
2023/05/23 10:31:56;;;;;;;7.28;2.60;;;14.80;99.90;;;;;;6241187;22;20371;-67
2023/05/23 10:34:37;;;;;;;13.90;3.17;;;14.90;99.90;;;;;;6239025;23;20027;-67
2023/05/23 10:37:05;;;;;;;12.02;2.42;;;14.90;99.90;;;;;;6239144;23;20048;-67
2023/05/23 10:39:43;;;;;;;14.45;3.35;;;15.00;99.90;;;;;;6240904;22;20012;-68
2023/05/23 10:42:43;;;;;;;10.07;2.05;;;15.10;99.90;;;;;;6241049;22;20098;-67
2023/05/23 10:45:19;;;;;;;16.52;2.22;;;14.80;99.90;;;;;;6241270;22;20031;-67
2023/05/23 10:47:51;;;;;;;11.65;2.33;;;14.90;99.90;;;;;;6239220;23;20020;-67
2023/05/23 10:50:34;;;;;;;12.15;3.25;;;15.10;99.90;;;;;;6241057;22;20008;-67
2023/05/23 10:53:01;;;;;;;7.10;1.83;;;15.30;99.90;;;;;;6241450;22;20082;-67
2023/05/23 10:55:34;;;;;;;8.23;2.53;;;15.10;99.90;;;;;;6240982;22;20027;-67
2023/05/23 10:58:18;;;;;;;8.88;2.88;;;15.30;99.90;;;;;;6241256;22;20074;-68
2023/05/23 12:11:31;;;;;;;7.40;2.30;;;16.00;99.90;;;;;;6234535;23;20024;-69
2023/05/23 12:13:58;;;;;;;10.05;2.20;;;16.20;99.90;;;;;;6212056;23;20029;-70
2023/05/23 12:16:24;;;;;;;10.88;2.25;;;16.20;99.90;;;;;;6212397;23;20016;-69
2023/05/23 12:18:52;;;;;;;10.25;2.17;;;16.20;99.90;;;;;;6212420;23;20337;-70
2023/05/23 12:21:17;;;;;;;13.13;3.75;;;16.50;99.90;;;;;;6212037;23;20464;-69
2023/05/23 12:23:43;;;;;;;9.68;2.38;;;16.70;99.90;;;;;;6210218;23;20075;-70
2023/05/23 12:26:09;;;;;;;12.25;2.13;;;16.40;99.90;;;;;;6212372;23;20070;-70
2023/05/23 12:28:43;;;;;;;12.07;2.53;;;16.50;99.90;;;;;;6212577;23;20024;-70
2023/05/23 12:31:22;;;;;;;8.93;2.00;;;16.70;99.90;;;;;;6212692;23;20447;-70
2023/05/23 12:33:51;;;;;;;8.40;2.33;;;16.70;99.90;;;;;;6210948;23;20025;-70
2023/05/23 12:36:22;;;;;;;11.15;2.15;;;16.70;99.90;;;;;;6210090;23;20087;-70
2023/05/23 12:38:48;;;;;;;6.57;2.45;;;16.30;99.90;;;;;;6210340;23;20020;-70
2023/05/23 12:41:18;;;;;;;5.20;1.77;;;15.90;99.90;;;;;;6210164;23;20091;-70
2023/05/23 12:43:52;;;;;;;8.65;2.22;;;16.00;99.90;;;;;;6210213;23;20021;-70
2023/05/23 12:46:19;;;;;;;10.10;2.50;;;16.10;99.90;;;;;;6212266;23;20022;-70
2023/05/23 12:48:46;;;;;;;8.85;2.05;;;16.30;99.90;;;;;;6212316;23;20031;-70
2023/05/23 12:51:12;;;;;;;6.65;1.92;;;16.40;99.90;;;;;;6211650;23;20013;-70
2023/05/23 12:53:38;;;;;;;9.32;2.20;;;16.60;99.90;;;;;;6212156;23;20047;-70
2023/05/23 12:56:04;;;;;;;7.63;2.13;;;16.80;99.90;;;;;;6211979;23;20333;-69
2023/05/23 12:58:31;;;;;;;6.22;1.98;;;16.50;99.90;;;;;;6210102;23;20048;-70
2023/05/23 13:00:57;;;;;;;12.77;1.92;;;16.30;99.90;;;;;;6210223;23;20345;-70
2023/05/23 13:03:23;;;;;;;6.53;1.90;;;16.50;99.90;;;;;;6210002;23;20028;-70
2023/05/23 13:05:49;;;;;;;8.45;2.00;;;16.20;99.90;;;;;;6209733;23;20020;-70
2023/05/23 13:08:15;;;;;;;8.40;1.58;;;16.20;99.90;;;;;;6209987;23;20341;-71
2023/05/23 13:10:41;;;;;;;7.22;1.83;;;16.00;99.90;;;;;;6210007;23;20017;-70
2023/05/23 13:13:07;;;;;;;8.18;1.95;;;16.00;99.90;;;;;;6211524;23;20028;-70
2023/05/23 13:15:32;;;;;;;11.48;3.22;;;16.10;99.90;;;;;;6211998;23;20056;-71
2023/05/23 13:17:58;;;;;;;9.55;2.13;;;15.90;99.90;;;;;;6209980;23;20091;-70
2023/05/23 13:20:28;;;;;;;7.05;2.00;;;15.70;99.90;;;;;;6209417;23;20088;-68
2023/05/23 13:22:58;;;;;;;6.32;1.60;;;15.90;99.90;;;;;;6209943;23;20455;-69
2023/05/23 13:25:25;;;;;;;8.73;2.17;;;16.20;99.90;;;;;;6209543;23;20095;-68
2023/05/23 13:27:51;;;;;;;11.38;2.17;;;16.30;99.90;;;;;;6209976;23;20026;-69
2023/05/23 13:30:21;;;;;;;7.85;2.50;;;16.20;99.90;;;;;;6211817;23;20019;-69
2023/05/23 13:32:47;;;;;;;10.30;2.40;;;16.00;99.90;;;;;;6211756;23;20016;-69
2023/05/23 13:35:13;;;;;;;7.75;1.65;;;16.20;99.90;;;;;;6211125;23;20035;-68
2023/05/23 13:37:39;;;;;;;6.28;2.05;;;16.40;99.90;;;;;;6211684;23;20032;-68
2023/05/23 13:40:05;;;;;;;10.10;1.90;;;16.70;99.90;;;;;;6211202;23;20029;-68
2023/05/23 13:42:31;;;;;;;8.77;2.67;;;16.70;99.90;;;;;;6209768;23;20056;-68
2023/05/23 13:44:57;;;;;;;9.27;1.98;;;16.50;99.90;;;;;;6211763;23;20016;-68
2023/05/23 13:47:22;;;;;;;9.68;2.00;;;15.90;99.90;;;;;;6211531;23;20013;-68
2023/05/23 13:49:49;;;;;;;9.00;1.77;;;15.90;99.90;;;;;;6211191;23;20499;-68
2023/05/23 13:52:14;;;;;;;9.48;2.65;;;16.00;99.90;;;;;;6209335;23;20040;-68